sensor_id;sensor_type;location;lat;lon;timestamp;pressure;altitude;pressure_sealevel;temperature;humidity
12475;BME280;6302;42.624;23.334;2023-06-14T00:01:18;93058.22;;;16.86;100.00
12475;BME280;6302;42.624;23.334;2023-06-14T00:03:47;93062.38;;;16.87;100.00
12475;BME280;6302;42.624;23.334;2023-06-14T00:06:13;93054.66;;;16.89;100.00
12475;BME280;6302;42.624;23.334;2023-06-14T00:08:41;93047.53;;;16.86;100.00
12475;BME280;6302;42.624;23.334;2023-06-14T00:11:07;93061.22;;;16.88;100.00
12475;BME280;6302;42.624;23.334;2023-06-14T00:13:34;93050.19;;;16.86;100.00
12475;BME280;6302;42.624;23.334;2023-06-14T00:16:01;93048.25;;;16.86;100.00
12475;BME280;6302;42.624;23.334;2023-06-14T00:18:29;93046.31;;;16.87;100.00
12475;BME280;6302;42.624;23.334;2023-06-14T00:20:57;93049.31;;;16.89;100.00
12475;BME280;6302;42.624;23.334;2023-06-14T00:23:24;93045.47;;;16.90;100.00
12475;BME280;6302;42.624;23.334;2023-06-14T00:25:51;93041.28;;;16.89;100.00
12475;BME280;6302;42.624;23.334;2023-06-14T00:28:18;93041.28;;;16.89;100.00
12475;BME280;6302;42.624;23.334;2023-06-14T00:30:44;93016.97;;;16.74;100.00
12475;BME280;6302;42.624;23.334;2023-06-14T00:33:12;93031.78;;;16.88;100.00
12475;BME280;6302;42.624;23.334;2023-06-14T00:35:39;93034.75;;;16.90;100.00
12475;BME280;6302;42.624;23.334;2023-06-14T00:38:07;93032.06;;;16.90;100.00
12475;BME280;6302;42.624;23.334;2023-06-14T00:40:33;93035.63;;;16.87;100.00
12475;BME280;6302;42.624;23.334;2023-06-14T00:43:01;93029.09;;;16.88;100.00
12475;BME280;6302;42.624;23.334;2023-06-14T00:45:27;93040.22;;;16.86;100.00
12475;BME280;6302;42.624;23.334;2023-06-14T00:47:56;93027.91;;;16.89;100.00
12475;BME280;6302;42.624;23.334;2023-06-14T00:50:25;93025.97;;;16.89;100.00
12475;BME280;6302;42.624;23.334;2023-06-14T00:52:52;93031.78;;;16.88;100.00
12475;BME280;6302;42.624;23.334;2023-06-14T00:55:20;93022.38;;;16.83;100.00
12475;BME280;6302;42.624;23.334;2023-06-14T00:57:47;93026.22;;;16.82;100.00
12475;BME280;6302;42.624;23.334;2023-06-14T01:00:15;93025.19;;;16.80;100.00
12475;BME280;6302;42.624;23.334;2023-06-14T01:02:41;93024.31;;;16.83;100.00
12475;BME280;6302;42.624;23.334;2023-06-14T01:05:09;93022.81;;;16.82;100.00
12475;BME280;6302;42.624;23.334;2023-06-14T01:07:47;93026.34;;;16.79;100.00
12475;BME280;6302;42.624;23.334;2023-06-14T01:10:33;93019.22;;;16.76;100.00
12475;BME280;6302;42.624;23.334;2023-06-14T01:13:07;93020.69;;;16.77;100.00
12475;BME280;6302;42.624;23.334;2023-06-14T01:15:38;93028.72;;;16.77;100.00
12475;BME280;6302;42.624;23.334;2023-06-14T01:18:05;93021.56;;;16.74;100.00
12475;BME280;6302;42.624;23.334;2023-06-14T01:20:33;93029.28;;;16.72;100.00
12475;BME280;6302;42.624;23.334;2023-06-14T01:23:04;93023.50;;;16.73;100.00
12475;BME280;6302;42.624;23.334;2023-06-14T01:25:31;93031.97;;;16.72;100.00
12475;BME280;6302;42.624;23.334;2023-06-14T01:28:00;93022.16;;;16.69;100.00
12475;BME280;6302;42.624;23.334;2023-06-14T01:30:29;93025.53;;;16.69;100.00
12475;BME280;6302;42.624;23.334;2023-06-14T01:32:59;93021.69;;;16.70;100.00
12475;BME280;6302;42.624;23.334;2023-06-14T01:35:26;93023.19;;;16.71;100.00
12475;BME280;6302;42.624;23.334;2023-06-14T01:37:53;93017.09;;;16.71;100.00
12475;BME280;6302;42.624;23.334;2023-06-14T01:40:21;93020.66;;;16.68;100.00
12475;BME280;6302;42.624;23.334;2023-06-14T01:42:50;93015.59;;;16.70;100.00
12475;BME280;6302;42.624;23.334;2023-06-14T01:45:18;93025.13;;;16.71;100.00
12475;BME280;6302;42.624;23.334;2023-06-14T01:47:46;93016.03;;;16.68;100.00
12475;BME280;6302;42.624;23.334;2023-06-14T01:50:14;93011.75;;;16.71;100.00
12475;BME280;6302;42.624;23.334;2023-06-14T01:52:41;93012.91;;;16.70;100.00
12475;BME280;6302;42.624;23.334;2023-06-14T01:55:08;93014.13;;;16.69;100.00
12475;BME280;6302;42.624;23.334;2023-06-14T01:57:36;93024.81;;;16.69;100.00
12475;BME280;6302;42.624;23.334;2023-06-14T02:00:04;93012.88;;;16.61;100.00
12475;BME280;6302;42.624;23.334;2023-06-14T02:02:31;93021.81;;;16.67;100.00
12475;BME280;6302;42.624;23.334;2023-06-14T02:04:58;93029.53;;;16.65;100.00
12475;BME280;6302;42.624;23.334;2023-06-14T02:07:24;93034.56;;;16.63;100.00
12475;BME280;6302;42.624;23.334;2023-06-14T02:09:51;93039.19;;;16.62;100.00
12475;BME280;6302;42.624;23.334;2023-06-14T02:12:18;93037.81;;;16.58;100.00
12475;BME280;6302;42.624;23.334;2023-06-14T02:14:46;93042.84;;;16.56;100.00
12475;BME280;6302;42.624;23.334;2023-06-14T02:17:13;93049.81;;;16.53;100.00
12475;BME280;6302;42.624;23.334;2023-06-14T02:19:41;93050.75;;;16.47;100.00
12475;BME280;6302;42.624;23.334;2023-06-14T02:22:08;93047.47;;;16.43;100.00
12475;BME280;6302;42.624;23.334;2023-06-14T02:24:35;93047.91;;;16.41;100.00
12475;BME280;6302;42.624;23.334;2023-06-14T02:27:02;93051.91;;;16.37;100.00
12475;BME280;6302;42.624;23.334;2023-06-14T02:29:29;93052.75;;;16.34;100.00
12475;BME280;6302;42.624;23.334;2023-06-14T02:31:57;93055.97;;;16.28;100.00
12475;BME280;6302;42.624;23.334;2023-06-14T02:34:24;93050.75;;;16.25;100.00
12475;BME280;6302;42.624;23.334;2023-06-14T02:36:51;93041.78;;;16.19;100.00
12475;BME280;6302;42.624;23.334;2023-06-14T02:39:18;93050.75;;;16.25;100.00
12475;BME280;6302;42.624;23.334;2023-06-14T02:41:46;93037.19;;;16.19;100.00
12475;BME280;6302;42.624;23.334;2023-06-14T02:44:14;93052.34;;;16.22;100.00
12475;BME280;6302;42.624;23.334;2023-06-14T02:46:43;93043.16;;;16.23;100.00
12475;BME280;6302;42.624;23.334;2023-06-14T02:49:11;93046.69;;;16.20;100.00
12475;BME280;6302;42.624;23.334;2023-06-14T02:51:38;93052.03;;;16.20;100.00
12475;BME280;6302;42.624;23.334;2023-06-14T02:54:05;93053.22;;;16.19;100.00
12475;BME280;6302;42.624;23.334;2023-06-14T02:56:32;93044.88;;;16.17;100.00
12475;BME280;6302;42.624;23.334;2023-06-14T02:58:58;93058.69;;;16.16;100.00
12475;BME280;6302;42.624;23.334;2023-06-14T03:01:25;93032.84;;;16.00;100.00
12475;BME280;6302;42.624;23.334;2023-06-14T03:03:59;93062.97;;;16.13;100.00
12475;BME280;6302;42.624;23.334;2023-06-14T03:06:27;93057.63;;;16.13;100.00
12475;BME280;6302;42.624;23.334;2023-06-14T03:08:55;93065.09;;;16.18;100.00
12475;BME280;6302;42.624;23.334;2023-06-14T03:11:24;93065.53;;;16.17;100.00
12475;BME280;6302;42.624;23.334;2023-06-14T03:13:51;93059.75;;;16.18;100.00
12475;BME280;6302;42.624;23.334;2023-06-14T03:16:18;93063.94;;;16.19;100.00
12475;BME280;6302;42.624;23.334;2023-06-14T03:18:48;93061.34;;;16.16;100.00
12475;BME280;6302;42.624;23.334;2023-06-14T03:21:15;93068.38;;;16.22;100.00
12475;BME280;6302;42.624;23.334;2023-06-14T03:23:44;93074.38;;;16.26;100.00
12475;BME280;6302;42.624;23.334;2023-06-14T03:26:10;93068.16;;;16.29;100.00
12475;BME280;6302;42.624;23.334;2023-06-14T03:28:40;93064.63;;;16.33;100.00
12475;BME280;6302;42.624;23.334;2023-06-14T03:31:07;93061.53;;;16.34;100.00
12475;BME280;6302;42.624;23.334;2023-06-14T03:33:34;93057.56;;;16.39;100.00
12475;BME280;6302;42.624;23.334;2023-06-14T03:36:01;93064.72;;;16.42;100.00
12475;BME280;6302;42.624;23.334;2023-06-14T03:38:28;93071.00;;;16.48;100.00
12475;BME280;6302;42.624;23.334;2023-06-14T03:40:57;93075.16;;;16.49;100.00
12475;BME280;6302;42.624;23.334;2023-06-14T03:43:23;93083.50;;;16.51;100.00
12475;BME280;6302;42.624;23.334;2023-06-14T03:45:50;93078.50;;;16.53;100.00
12475;BME280;6302;42.624;23.334;2023-06-14T03:48:17;93031.41;;;16.21;100.00
12475;BME280;6302;42.624;23.334;2023-06-14T03:50:44;93076.78;;;16.46;100.00
12475;BME280;6302;42.624;23.334;2023-06-14T03:53:11;93079.00;;;16.48;100.00
12475;BME280;6302;42.624;23.334;2023-06-14T03:55:38;93074.72;;;16.50;100.00
12475;BME280;6302;42.624;23.334;2023-06-14T03:58:06;93085.00;;;16.52;100.00
12475;BME280;6302;42.624;23.334;2023-06-14T04:00:33;93085.00;;;16.52;100.00
12475;BME280;6302;42.624;23.334;2023-06-14T04:03:01;93081.91;;;16.53;100.00
12475;BME280;6302;42.624;23.334;2023-06-14T04:05:28;93087.13;;;16.57;100.00
12475;BME280;6302;42.624;23.334;2023-06-14T04:07:55;93079.75;;;16.61;100.00
12475;BME280;6302;42.624;23.334;2023-06-14T04:10:22;93085.41;;;16.63;100.00
12475;BME280;6302;42.624;23.334;2023-06-14T04:12:49;93077.69;;;16.65;100.00
12475;BME280;6302;42.624;23.334;2023-06-14T04:15:18;93085.91;;;16.70;100.00
12475;BME280;6302;42.624;23.334;2023-06-14T04:17:45;93084.31;;;16.73;100.00
12475;BME280;6302;42.624;23.334;2023-06-14T04:20:12;93080.13;;;16.72;100.00
12475;BME280;6302;42.624;23.334;2023-06-14T04:22:39;93077.19;;;16.79;100.00
12475;BME280;6302;42.624;23.334;2023-06-14T04:25:07;93089.91;;;16.87;100.00
12475;BME280;6302;42.624;23.334;2023-06-14T04:27:33;93086.78;;;16.89;100.00
12475;BME280;6302;42.624;23.334;2023-06-14T04:30:02;93089.91;;;16.87;100.00
12475;BME280;6302;42.624;23.334;2023-06-14T04:32:30;93088.03;;;16.97;100.00
12475;BME280;6302;42.624;23.334;2023-06-14T04:34:59;93080.69;;;17.10;100.00
12475;BME280;6302;42.624;23.334;2023-06-14T04:37:27;93087.88;;;17.22;100.00
12475;BME280;6302;42.624;23.334;2023-06-14T04:39:54;93085.88;;;17.35;100.00
12475;BME280;6302;42.624;23.334;2023-06-14T04:42:22;93087.72;;;17.47;100.00
12475;BME280;6302;42.624;23.334;2023-06-14T04:44:51;93086.66;;;17.67;100.00
12475;BME280;6302;42.624;23.334;2023-06-14T04:47:21;93094.28;;;17.77;100.00
12475;BME280;6302;42.624;23.334;2023-06-14T04:49:49;93090.88;;;17.86;100.00
12475;BME280;6302;42.624;23.334;2023-06-14T04:52:19;93086.72;;;17.94;100.00
12475;BME280;6302;42.624;23.334;2023-06-14T04:54:46;93077.81;;;18.06;100.00
12475;BME280;6302;42.624;23.334;2023-06-14T04:57:14;93093.50;;;18.26;100.00
12475;BME280;6302;42.624;23.334;2023-06-14T04:59:42;93101.13;;;18.36;100.00
12475;BME280;6302;42.624;23.334;2023-06-14T05:02:09;93097.94;;;18.19;100.00
12475;BME280;6302;42.624;23.334;2023-06-14T05:04:37;93100.50;;;18.14;100.00
12475;BME280;6302;42.624;23.334;2023-06-14T05:07:07;93106.16;;;18.25;100.00
12475;BME280;6302;42.624;23.334;2023-06-14T05:09:34;93103.94;;;18.24;100.00
12475;BME280;6302;42.624;23.334;2023-06-14T05:12:01;93096.19;;;18.26;100.00
12475;BME280;6302;42.624;23.334;2023-06-14T05:14:28;93100.25;;;18.39;100.00
12475;BME280;6302;42.624;23.334;2023-06-14T05:16:55;93101.13;;;18.45;100.00
12475;BME280;6302;42.624;23.334;2023-06-14T05:19:22;93095.22;;;18.50;100.00
12475;BME280;6302;42.624;23.334;2023-06-14T05:21:49;93106.88;;;18.83;100.00
12475;BME280;6302;42.624;23.334;2023-06-14T05:24:17;93114.59;;;18.81;100.00
12475;BME280;6302;42.624;23.334;2023-06-14T05:26:45;93122.66;;;18.81;100.00
12475;BME280;6302;42.624;23.334;2023-06-14T05:29:12;93132.91;;;18.47;100.00
12475;BME280;6302;42.624;23.334;2023-06-14T05:31:38;93127.91;;;18.18;100.00
12475;BME280;6302;42.624;23.334;2023-06-14T05:34:05;93134.91;;;18.15;100.00
12475;BME280;6302;42.624;23.334;2023-06-14T05:36:32;93126.72;;;18.19;100.00
12475;BME280;6302;42.624;23.334;2023-06-14T05:38:59;93128.06;;;18.14;100.00
12475;BME280;6302;42.624;23.334;2023-06-14T05:41:29;93120.16;;;18.20;100.00
12475;BME280;6302;42.624;23.334;2023-06-14T05:43:57;93130.59;;;18.27;100.00
12475;BME280;6302;42.624;23.334;2023-06-14T05:46:25;93128.84;;;18.33;100.00
12475;BME280;6302;42.624;23.334;2023-06-14T05:48:53;93131.97;;;18.32;100.00
12475;BME280;6302;42.624;23.334;2023-06-14T05:51:20;93137.56;;;18.46;100.00
12475;BME280;6302;42.624;23.334;2023-06-14T05:53:47;93139.19;;;18.62;100.00
12475;BME280;6302;42.624;23.334;2023-06-14T05:56:15;93145.00;;;18.51;100.00
12475;BME280;6302;42.624;23.334;2023-06-14T05:58:44;93140.81;;;18.50;100.00
12475;BME280;6302;42.624;23.334;2023-06-14T06:01:11;93134.88;;;18.46;100.00
12475;BME280;6302;42.624;23.334;2023-06-14T06:03:38;93139.31;;;18.49;100.00
12475;BME280;6302;42.624;23.334;2023-06-14T06:06:05;93140.31;;;18.34;100.00
12475;BME280;6302;42.624;23.334;2023-06-14T06:08:33;93142.84;;;18.37;100.00
12475;BME280;6302;42.624;23.334;2023-06-14T06:11:00;93142.25;;;18.33;100.00
12475;BME280;6302;42.624;23.334;2023-06-14T06:13:27;93144.34;;;18.29;100.00
12475;BME280;6302;42.624;23.334;2023-06-14T06:15:55;93144.75;;;18.18;100.00
12475;BME280;6302;42.624;23.334;2023-06-14T06:18:22;93154.16;;;18.23;100.00
12475;BME280;6302;42.624;23.334;2023-06-14T06:20:49;93151.75;;;18.16;100.00
12475;BME280;6302;42.624;23.334;2023-06-14T06:23:15;93151.88;;;18.12;100.00
12475;BME280;6302;42.624;23.334;2023-06-14T06:25:42;93151.88;;;18.12;100.00
12475;BME280;6302;42.624;23.334;2023-06-14T06:28:09;93153.78;;;18.03;100.00
12475;BME280;6302;42.624;23.334;2023-06-14T06:30:36;93157.66;;;18.02;100.00
12475;BME280;6302;42.624;23.334;2023-06-14T06:33:04;93156.19;;;18.10;100.00
12475;BME280;6302;42.624;23.334;2023-06-14T06:35:31;93158.75;;;18.13;100.00
12475;BME280;6302;42.624;23.334;2023-06-14T06:37:59;93162.78;;;18.18;100.00
12475;BME280;6302;42.624;23.334;2023-06-14T06:40:26;93162.47;;;18.16;100.00
12475;BME280;6302;42.624;23.334;2023-06-14T06:42:53;93161.53;;;18.01;100.00
12475;BME280;6302;42.624;23.334;2023-06-14T06:45:19;93158.53;;;17.99;100.00
12475;BME280;6302;42.624;23.334;2023-06-14T06:47:46;93162.56;;;17.94;100.00
12475;BME280;6302;42.624;23.334;2023-06-14T06:50:15;93166.44;;;18.02;100.00
12475;BME280;6302;42.624;23.334;2023-06-14T06:52:42;93173.75;;;18.02;100.00
12475;BME280;6302;42.624;23.334;2023-06-14T06:55:10;93166.00;;;18.04;100.00
12475;BME280;6302;42.624;23.334;2023-06-14T06:57:38;93175.72;;;18.10;100.00
12475;BME280;6302;42.624;23.334;2023-06-14T07:00:06;93173.38;;;18.22;100.00
12475;BME280;6302;42.624;23.334;2023-06-14T07:02:35;93172.34;;;18.37;100.00
12475;BME280;6302;42.624;23.334;2023-06-14T07:05:02;93163.94;;;18.57;100.00
12475;BME280;6302;42.624;23.334;2023-06-14T07:07:30;93166.66;;;18.84;100.00
12475;BME280;6302;42.624;23.334;2023-06-14T07:09:57;93162.31;;;19.14;100.00
12475;BME280;6302;42.624;23.334;2023-06-14T07:12:24;93160.53;;;19.47;100.00
12475;BME280;6302;42.624;23.334;2023-06-14T07:27:05;93171.91;;;20.35;100.00
12475;BME280;6302;42.624;23.334;2023-06-14T07:29:33;93162.38;;;20.34;100.00
12475;BME280;6302;42.624;23.334;2023-06-14T07:32:00;93170.94;;;20.47;100.00
12475;BME280;6302;42.624;23.334;2023-06-14T07:34:26;93166.66;;;20.40;100.00
12475;BME280;6302;42.624;23.334;2023-06-14T07:36:53;93156.88;;;20.52;100.00
12475;BME280;6302;42.624;23.334;2023-06-14T07:39:20;93165.94;;;20.87;100.00
12475;BME280;6302;42.624;23.334;2023-06-14T07:41:47;93163.88;;;20.82;100.00
12475;BME280;6302;42.624;23.334;2023-06-14T07:44:15;93167.91;;;21.01;100.00
12475;BME280;6302;42.624;23.334;2023-06-14T07:46:42;93173.19;;;21.19;100.00
12475;BME280;6302;42.624;23.334;2023-06-14T07:49:11;93172.47;;;21.33;100.00
12475;BME280;6302;42.624;23.334;2023-06-14T07:51:38;93175.63;;;21.17;100.00
12475;BME280;6302;42.624;23.334;2023-06-14T07:54:05;93177.50;;;21.02;100.00
12475;BME280;6302;42.624;23.334;2023-06-14T07:56:34;93177.28;;;21.15;100.00
12475;BME280;6302;42.624;23.334;2023-06-14T07:59:01;93187.34;;;21.29;100.00
12475;BME280;6302;42.624;23.334;2023-06-14T08:01:29;93194.41;;;21.26;100.00
12475;BME280;6302;42.624;23.334;2023-06-14T08:03:56;93192.63;;;21.23;100.00
12475;BME280;6302;42.624;23.334;2023-06-14T08:06:22;93184.00;;;21.34;100.00
12475;BME280;6302;42.624;23.334;2023-06-14T08:08:49;93195.19;;;21.71;100.00
12475;BME280;6302;42.624;23.334;2023-06-14T08:11:16;93200.97;;;21.64;100.00
12475;BME280;6302;42.624;23.334;2023-06-14T08:13:43;93203.25;;;21.42;100.00
12475;BME280;6302;42.624;23.334;2023-06-14T08:16:10;93204.50;;;21.55;100.00
12475;BME280;6302;42.624;23.334;2023-06-14T08:18:38;93204.50;;;21.55;100.00
12475;BME280;6302;42.624;23.334;2023-06-14T08:21:05;93210.91;;;21.58;100.00
12475;BME280;6302;42.624;23.334;2023-06-14T08:23:32;93204.41;;;21.50;100.00
12475;BME280;6302;42.624;23.334;2023-06-14T08:25:59;93208.72;;;21.32;100.00
12475;BME280;6302;42.624;23.334;2023-06-14T08:28:26;93210.06;;;21.13;100.00
12475;BME280;6302;42.624;23.334;2023-06-14T08:30:53;93210.72;;;21.08;100.00
12475;BME280;6302;42.624;23.334;2023-06-14T08:33:20;93213.97;;;21.12;100.00
12475;BME280;6302;42.624;23.334;2023-06-14T08:35:49;93208.22;;;21.19;100.00
12475;BME280;6302;42.624;23.334;2023-06-14T08:38:16;93207.19;;;21.17;100.00
12475;BME280;6302;42.624;23.334;2023-06-14T08:40:42;93208.31;;;21.10;100.00
12475;BME280;6302;42.624;23.334;2023-06-14T08:43:09;93212.06;;;21.27;100.00
12475;BME280;6302;42.624;23.334;2023-06-14T08:45:39;93212.91;;;21.33;100.00
12475;BME280;6302;42.624;23.334;2023-06-14T08:48:07;93203.97;;;21.27;100.00
12475;BME280;6302;42.624;23.334;2023-06-14T08:50:36;93198.00;;;21.23;100.00
12475;BME280;6302;42.624;23.334;2023-06-14T08:53:11;93198.88;;;21.29;100.00
12475;BME280;6302;42.624;23.334;2023-06-14T08:55:45;93197.56;;;21.25;100.00
12475;BME280;6302;42.624;23.334;2023-06-14T08:58:13;93206.97;;;21.29;100.00
12475;BME280;6302;42.624;23.334;2023-06-14T09:00:40;93209.75;;;21.35;100.00
12475;BME280;6302;42.624;23.334;2023-06-14T09:03:08;93197.69;;;21.45;100.00
12475;BME280;6302;42.624;23.334;2023-06-14T09:05:39;93202.97;;;21.39;100.00
12475;BME280;6302;42.624;23.334;2023-06-14T09:08:06;93201.69;;;21.35;100.00
12475;BME280;6302;42.624;23.334;2023-06-14T09:10:35;93194.34;;;21.35;100.00
12475;BME280;6302;42.624;23.334;2023-06-14T09:13:02;93181.16;;;21.52;100.00
12475;BME280;6302;42.624;23.334;2023-06-14T09:15:30;93200.31;;;21.69;100.00
12475;BME280;6302;42.624;23.334;2023-06-14T09:17:56;93198.84;;;21.82;100.00
12475;BME280;6302;42.624;23.334;2023-06-14T09:20:24;93199.53;;;21.92;100.00
12475;BME280;6302;42.624;23.334;2023-06-14T09:22:51;93203.13;;;22.03;100.00
12475;BME280;6302;42.624;23.334;2023-06-14T09:25:18;93207.97;;;22.14;100.00
12475;BME280;6302;42.624;23.334;2023-06-14T09:27:47;93201.81;;;22.28;100.00
12475;BME280;6302;42.624;23.334;2023-06-14T09:30:14;93192.19;;;22.42;100.00
12475;BME280;6302;42.624;23.334;2023-06-14T09:32:41;93196.19;;;22.46;100.00
12475;BME280;6302;42.624;23.334;2023-06-14T09:35:08;93189.09;;;22.63;100.00
12475;BME280;6302;42.624;23.334;2023-06-14T09:37:35;93191.94;;;22.75;100.00
12475;BME280;6302;42.624;23.334;2023-06-14T09:40:04;93190.72;;;22.76;100.00
12475;BME280;6302;42.624;23.334;2023-06-14T09:42:32;93195.97;;;22.64;100.00
12475;BME280;6302;42.624;23.334;2023-06-14T09:45:03;93181.63;;;22.58;100.00
12475;BME280;6302;42.624;23.334;2023-06-14T09:47:31;93185.81;;;22.59;100.00
12475;BME280;6302;42.624;23.334;2023-06-14T09:49:57;93184.06;;;22.42;100.00
12475;BME280;6302;42.624;23.334;2023-06-14T09:52:27;93191.47;;;22.41;100.00
12475;BME280;6302;42.624;23.334;2023-06-14T09:54:54;93184.16;;;22.47;100.00
12475;BME280;6302;42.624;23.334;2023-06-14T09:57:23;93178.94;;;22.58;100.00
12475;BME280;6302;42.624;23.334;2023-06-14T09:59:53;93175.47;;;22.73;100.00
12475;BME280;6302;42.624;23.334;2023-06-14T10:02:27;93167.63;;;22.75;100.00
12475;BME280;6302;42.624;23.334;2023-06-14T10:05:00;93165.34;;;22.88;100.00
12475;BME280;6302;42.624;23.334;2023-06-14T10:07:33;93173.03;;;22.95;100.00
12475;BME280;6302;42.624;23.334;2023-06-14T10:10:02;93170.75;;;23.08;100.00
12475;BME280;6302;42.624;23.334;2023-06-14T10:12:30;93166.28;;;23.25;100.00
12475;BME280;6302;42.624;23.334;2023-06-14T10:15:00;93158.38;;;23.01;100.00
12475;BME280;6302;42.624;23.334;2023-06-14T10:17:38;93151.00;;;23.22;100.00
12475;BME280;6302;42.624;23.334;2023-06-14T10:20:16;93149.97;;;23.40;100.00
12475;BME280;6302;42.624;23.334;2023-06-14T10:22:50;93149.03;;;23.43;100.00
12475;BME280;6302;42.624;23.334;2023-06-14T10:25:27;93156.97;;;23.77;100.00
12475;BME280;6302;42.624;23.334;2023-06-14T10:28:03;93158.28;;;23.87;100.00
12475;BME280;6302;42.624;23.334;2023-06-14T10:30:31;93164.69;;;24.16;100.00
12475;BME280;6302;42.624;23.334;2023-06-14T10:33:06;93157.06;;;23.88;100.00
12475;BME280;6302;42.624;23.334;2023-06-14T10:35:33;93166.41;;;23.87;100.00
12475;BME280;6302;42.624;23.334;2023-06-14T10:38:10;93152.59;;;23.85;100.00
12475;BME280;6302;42.624;23.334;2023-06-14T10:40:38;93150.50;;;23.69;100.00
12475;BME280;6302;42.624;23.334;2023-06-14T10:43:20;93151.97;;;23.70;100.00
12475;BME280;6302;42.624;23.334;2023-06-14T10:46:15;93151.41;;;23.86;100.00
12475;BME280;6302;42.624;23.334;2023-06-14T10:48:43;93148.47;;;23.90;100.00
12475;BME280;6302;42.624;23.334;2023-06-14T10:51:20;93145.53;;;23.93;100.00
12475;BME280;6302;42.624;23.334;2023-06-14T10:53:48;93138.81;;;23.83;100.00
12475;BME280;6302;42.624;23.334;2023-06-14T10:56:27;93130.34;;;24.02;100.00
12475;BME280;6302;42.624;23.334;2023-06-14T10:58:54;93128.50;;;24.13;100.00
12475;BME280;6302;42.624;23.334;2023-06-14T11:01:36;93126.09;;;23.89;100.00
12475;BME280;6302;42.624;23.334;2023-06-14T11:04:11;93129.22;;;23.82;100.00
12475;BME280;6302;42.624;23.334;2023-06-14T11:06:46;93123.84;;;23.88;100.00
12475;BME280;6302;42.624;23.334;2023-06-14T11:12:27;93128.13;;;24.00;100.00
12475;BME280;6302;42.624;23.334;2023-06-14T11:14:54;93121.13;;;23.82;100.00
12475;BME280;6302;42.624;23.334;2023-06-14T11:17:21;93121.44;;;23.64;100.00
12475;BME280;6302;42.624;23.334;2023-06-14T11:19:49;93114.66;;;23.74;100.00
12475;BME280;6302;42.624;23.334;2023-06-14T11:22:16;93121.38;;;23.84;100.00
12475;BME280;6302;42.624;23.334;2023-06-14T11:24:43;93108.34;;;23.88;100.00
12475;BME280;6302;42.624;23.334;2023-06-14T11:27:10;93111.06;;;23.88;100.00
12475;BME280;6302;42.624;23.334;2023-06-14T11:29:38;93103.88;;;23.80;100.00
12475;BME280;6302;42.624;23.334;2023-06-14T11:32:07;93100.22;;;23.88;100.00
12475;BME280;6302;42.624;23.334;2023-06-14T11:34:37;93115.78;;;23.93;100.00
12475;BME280;6302;42.624;23.334;2023-06-14T11:37:05;93112.28;;;23.87;100.00
12475;BME280;6302;42.624;23.334;2023-06-14T11:39:32;93112.56;;;23.89;100.00
12475;BME280;6302;42.624;23.334;2023-06-14T11:42:01;93109.59;;;23.93;100.00
12475;BME280;6302;42.624;23.334;2023-06-14T11:44:28;93094.88;;;23.94;100.00
12475;BME280;6302;42.624;23.334;2023-06-14T11:46:55;93090.72;;;23.99;100.00
12475;BME280;6302;42.624;23.334;2023-06-14T11:49:23;93088.88;;;24.16;100.00
12475;BME280;6302;42.624;23.334;2023-06-14T11:51:50;93079.22;;;24.46;100.00
12475;BME280;6302;42.624;23.334;2023-06-14T11:54:18;93092.19;;;24.84;100.00
12475;BME280;6302;42.624;23.334;2023-06-14T11:56:45;93086.38;;;25.13;100.00
12475;BME280;6302;42.624;23.334;2023-06-14T11:59:13;93077.25;;;25.05;92.56
12475;BME280;6302;42.624;23.334;2023-06-14T12:01:42;93068.09;;;24.97;94.72
12475;BME280;6302;42.624;23.334;2023-06-14T12:04:10;93069.84;;;25.00;100.00
12475;BME280;6302;42.624;23.334;2023-06-14T12:06:37;93066.41;;;25.16;97.33
12475;BME280;6302;42.624;23.334;2023-06-14T12:09:05;93054.59;;;25.19;96.38
12475;BME280;6302;42.624;23.334;2023-06-14T12:11:37;93056.56;;;25.19;98.18
12475;BME280;6302;42.624;23.334;2023-06-14T12:14:04;93059.25;;;25.13;98.13
12475;BME280;6302;42.624;23.334;2023-06-14T12:16:33;93052.09;;;25.05;97.54
12475;BME280;6302;42.624;23.334;2023-06-14T12:19:07;93061.72;;;25.00;99.27
12475;BME280;6302;42.624;23.334;2023-06-14T12:21:36;93062.19;;;24.93;100.00
12475;BME280;6302;42.624;23.334;2023-06-14T12:24:04;93055.00;;;24.85;100.00
12475;BME280;6302;42.624;23.334;2023-06-14T12:26:32;93053.25;;;24.76;100.00
12475;BME280;6302;42.624;23.334;2023-06-14T12:29:01;93041.38;;;24.68;100.00
12475;BME280;6302;42.624;23.334;2023-06-14T12:31:28;93036.94;;;24.65;100.00
12475;BME280;6302;42.624;23.334;2023-06-14T12:33:55;93042.34;;;24.65;100.00
12475;BME280;6302;42.624;23.334;2023-06-14T12:36:21;93043.56;;;24.58;100.00
12475;BME280;6302;42.624;23.334;2023-06-14T12:38:48;93041.84;;;24.61;100.00
12475;BME280;6302;42.624;23.334;2023-06-14T12:41:18;93037.41;;;24.58;100.00
12475;BME280;6302;42.624;23.334;2023-06-14T12:43:46;93035.91;;;24.57;100.00
12475;BME280;6302;42.624;23.334;2023-06-14T12:46:17;93024.56;;;24.53;100.00
12475;BME280;6302;42.624;23.334;2023-06-14T12:48:44;93023.59;;;24.56;100.00
12475;BME280;6302;42.624;23.334;2023-06-14T12:51:10;93026.56;;;24.58;100.00
12475;BME280;6302;42.624;23.334;2023-06-14T12:53:37;93025.06;;;24.57;100.00
12475;BME280;6302;42.624;23.334;2023-06-14T12:56:04;93019.91;;;24.53;100.00
12475;BME280;6302;42.624;23.334;2023-06-14T12:58:31;93032.19;;;24.49;100.00
12475;BME280;6302;42.624;23.334;2023-06-14T13:00:58;93026.97;;;24.40;100.00
12475;BME280;6302;42.624;23.334;2023-06-14T13:03:26;93027.44;;;24.33;100.00
12475;BME280;6302;42.624;23.334;2023-06-14T13:05:54;93019.53;;;24.24;100.00
12475;BME280;6302;42.624;23.334;2023-06-14T13:08:21;93004.59;;;24.03;100.00
12475;BME280;6302;42.624;23.334;2023-06-14T13:10:50;93023.28;;;24.01;100.00